Time;durP1;ratioP1;P1;durP2;ratioP2;P2;SDS_P1;SDS_P2;PMS_P1;PMS_P2;Temp;Humidity;BMP_temperature;BMP_pressure;BME280_temperature;BME280_humidity;BME280_pressure;Samples;Min_cycle;Max_cycle;Signal;HPM_P1;HPM_P2
2023/07/03 07:38:41;;;;;;;7.30;4.90;;;;;;;27.11;60.98;99595.45;110359;1249;26578;-50
2023/07/03 07:41:08;;;;;;;8.30;5.60;;;;;;;27.18;60.88;99598.62;112695;1237;22420;-42
2023/07/03 07:43:35;;;;;;;6.00;5.50;;;;;;;27.20;60.62;99595.60;111544;1237;22754;-51
2023/07/03 07:46:02;;;;;;;7.90;5.20;;;;;;;27.21;60.14;99600.84;112824;1239;22646;-50
2023/07/03 07:48:28;;;;;;;6.40;5.30;;;;;;;27.26;59.95;99599.91;112928;1239;22931;-51
2023/07/03 07:50:59;;;;;;;6.90;5.00;;;;;;;27.35;59.86;99597.13;112713;1239;22535;-41
2023/07/03 07:53:28;;;;;;;5.80;4.70;;;;;;;27.46;59.14;99599.42;111847;1249;22460;-42
2023/07/03 07:55:58;;;;;;;10.10;4.10;;;;;;;27.59;59.38;99601.41;110604;1238;22527;-41
2023/07/03 07:58:25;;;;;;;9.40;4.30;;;;;;;27.62;61.16;99606.55;110958;1239;22449;-50
2023/07/03 08:00:53;;;;;;;17.80;8.20;;;;;;;27.47;62.63;99609.54;112961;1242;22469;-42
2023/07/03 08:03:19;;;;;;;9.40;5.50;;;;;;;27.25;64.12;99610.05;112910;1243;22589;-41
2023/07/03 08:05:46;;;;;;;5.60;4.20;;;;;;;27.05;64.91;99610.56;110543;1244;22497;-44
2023/07/03 08:08:13;;;;;;;4.60;3.90;;;;;;;26.86;65.21;99613.64;110949;1236;22484;-43
2023/07/03 08:10:41;;;;;;;9.10;4.80;;;;;;;26.67;65.70;99616.55;110693;1239;24224;-50
2023/07/03 08:13:08;;;;;;;8.20;5.00;;;;;;;26.49;66.36;99617.24;110833;1244;24185;-50
2023/07/03 08:15:35;;;;;;;5.60;4.40;;;;;;;26.30;66.48;99617.77;112946;1239;22377;-41
2023/07/03 08:18:02;;;;;;;5.70;4.50;;;;;;;26.18;67.87;99613.34;111985;1235;25261;-41
2023/07/03 08:20:29;;;;;;;13.80;6.30;;;;;;;26.16;68.98;99614.73;110848;1239;25311;-41
2023/07/03 08:22:55;;;;;;;10.60;6.70;;;;;;;26.21;69.70;99607.23;111146;1240;22527;-41
2023/07/03 08:25:22;;;;;;;9.20;5.50;;;;;;;26.34;69.49;99609.93;110728;1245;23876;-40
2023/07/03 08:27:48;;;;;;;6.40;4.70;;;;;;;26.46;69.43;99609.45;110299;1239;25312;-52
2023/07/03 08:30:15;;;;;;;6.40;4.10;;;;;;;26.52;68.47;99608.98;110997;1237;22465;-51
2023/07/03 08:32:43;;;;;;;11.90;6.00;;;;;;;26.55;67.83;99609.29;110956;1243;24175;-41
2023/07/03 08:35:10;;;;;;;10.40;5.60;;;;;;;26.66;67.49;99612.15;111009;1240;24339;-41
2023/07/03 08:37:40;;;;;;;14.70;4.90;;;;;;;26.86;66.80;99612.60;110797;1239;22622;-52
2023/07/03 08:40:08;;;;;;;17.40;5.80;;;;;;;26.99;65.57;99615.70;111910;1239;22319;-40
2023/07/03 08:42:45;;;;;;;13.00;4.70;;;;;;;27.07;64.48;99616.52;111725;1249;22590;-50
2023/07/03 08:45:14;;;;;;;8.00;4.20;;;;;;;27.19;64.01;99614.51;110059;1236;24182;-40
2023/07/03 08:47:41;;;;;;;8.10;4.90;;;;;;;27.35;63.35;99614.96;111652;1239;22294;-41
2023/07/03 08:50:10;;;;;;;7.40;4.20;;;;;;;27.54;62.10;99616.27;111071;1241;22444;-41
2023/07/03 08:52:54;;;;;;;7.90;3.90;;;;;;;27.70;61.27;99615.57;110856;1239;22504;-40
2023/07/03 08:55:24;;;;;;;10.70;5.10;;;;;;;27.86;60.72;99616.79;110295;1239;22562;-41
2023/07/03 08:57:50;;;;;;;9.70;4.70;;;;;;;27.97;60.03;99615.64;111642;1239;23037;-50
2023/07/03 09:00:20;;;;;;;9.80;4.40;;;;;;;28.10;59.28;99613.66;112927;1238;23133;-42
2023/07/03 09:03:22;;;;;;;5.80;5.00;;;;;;;28.29;59.39;99613.04;111849;1239;24214;-50
2023/07/03 09:05:55;;;;;;;7.20;4.70;;;;;;;28.49;59.17;99609.39;112212;1246;22856;-43
2023/07/03 09:08:33;;;;;;;7.60;5.00;;;;;;;28.54;59.26;99610.40;110775;1243;22586;-51
2023/07/03 09:11:00;;;;;;;5.80;4.50;;;;;;;28.51;58.72;99610.02;110082;1241;25696;-39
2023/07/03 09:13:37;;;;;;;5.10;4.50;;;;;;;28.58;58.55;99606.98;110436;1239;22556;-41
2023/07/03 09:16:11;;;;;;;9.00;4.20;;;;;;;28.75;58.27;99605.35;110123;1246;25315;-42
2023/07/03 09:18:47;;;;;;;6.30;4.30;;;;;;;28.91;57.47;99608.59;110189;1240;24183;-40
2023/07/03 09:21:14;;;;;;;12.10;5.00;;;;;;;29.13;57.55;99603.64;112233;1241;25308;-41
2023/07/03 09:23:59;;;;;;;7.40;3.90;;;;;;;29.28;57.15;99606.09;112717;1239;22480;-50
2023/07/03 09:26:32;;;;;;;6.30;3.90;;;;;;;29.33;56.38;99607.98;110114;1240;22494;-52
2023/07/03 09:28:59;;;;;;;8.30;4.00;;;;;;;29.30;56.32;99608.45;110307;1240;25462;-51
2023/07/03 09:31:27;;;;;;;5.90;3.70;;;;;;;29.26;56.41;99611.10;112766;1249;22345;-41
2023/07/03 09:33:54;;;;;;;7.10;3.80;;;;;;;29.20;56.79;99612.23;112938;1240;22255;-42
2023/07/03 09:36:28;;;;;;;8.00;4.10;;;;;;;29.24;57.02;99614.38;112924;1238;22337;-42
2023/07/03 09:38:55;;;;;;;6.60;3.90;;;;;;;29.32;56.06;99616.70;112345;1245;22430;-51
2023/07/03 09:41:29;;;;;;;6.20;3.90;;;;;;;29.36;55.81;99614.88;112918;1246;23107;-43
2023/07/03 09:43:58;;;;;;;5.30;4.20;;;;;;;29.43;55.71;99613.19;112941;1246;22435;-45
2023/07/03 09:46:25;;;;;;;8.80;3.90;;;;;;;29.50;55.92;99613.84;112242;1239;24772;-41
2023/07/03 09:48:51;;;;;;;5.10;4.40;;;;;;;29.52;56.22;99612.04;109957;1245;22714;-50
2023/07/03 09:51:22;;;;;;;8.10;5.20;;;;;;;29.48;56.67;99609.87;109907;1243;22507;-42
2023/07/03 09:53:49;;;;;;;10.60;4.60;;;;;;;29.36;57.31;99611.30;109953;1246;22506;-51
2023/07/03 09:56:19;;;;;;;10.00;4.60;;;;;;;29.32;57.68;99613.10;109789;1244;22508;-42
2023/07/03 09:58:47;;;;;;;7.40;4.40;;;;;;;29.35;57.32;99610.89;112808;1241;22846;-49
2023/07/03 10:01:23;;;;;;;4.80;3.90;;;;;;;29.43;57.26;99613.00;111430;1237;22517;-41
2023/07/03 10:04:09;;;;;;;11.10;4.60;;;;;;;29.48;56.49;99608.08;112728;1239;22269;-50
2023/07/03 10:06:40;;;;;;;8.00;5.20;;;;;;;29.46;56.64;99607.02;110557;1239;26522;-40
2023/07/03 10:09:18;;;;;;;5.70;4.50;;;;;;;29.46;57.08;99605.23;109898;1238;26458;-50
2023/07/03 10:12:02;;;;;;;7.70;4.60;;;;;;;29.40;57.07;99601.19;109931;1240;25508;-42
2023/07/03 10:14:35;;;;;;;13.80;4.70;;;;;;;29.32;56.92;99601.23;110411;1241;22506;-41
2023/07/03 10:17:01;;;;;;;13.80;5.40;;;;;;;29.28;57.01;99600.02;110494;1240;22522;-41
2023/07/03 10:19:28;;;;;;;6.70;4.40;;;;;;;29.28;57.54;99593.30;109645;1240;25479;-42
2023/07/03 10:21:55;;;;;;;9.10;4.10;;;;;;;29.32;57.45;99592.79;110233;1240;22512;-50
2023/07/03 10:24:22;;;;;;;4.90;4.20;;;;;;;29.38;56.67;99582.54;109843;1240;22498;-51
2023/07/03 10:26:52;;;;;;;9.20;4.00;;;;;;;29.50;56.52;99581.84;110993;1237;23296;-42
2023/07/03 10:29:24;;;;;;;7.00;4.40;;;;;;;29.61;55.63;99583.36;110738;1243;24159;-50
2023/07/03 10:31:53;;;;;;;9.80;4.70;;;;;;;29.74;55.12;99585.82;110117;1239;22629;-50
2023/07/03 10:34:29;;;;;;;7.20;4.00;;;;;;;29.97;54.46;99580.80;110100;1240;23006;-52
2023/07/03 10:37:00;;;;;;;4.80;3.90;;;;;;;30.32;53.48;99568.24;110045;1248;22573;-51
2023/07/03 10:39:55;;;;;;;5.80;3.60;;;;;;;30.63;50.58;99576.14;110362;1240;22635;-51
2023/07/03 10:42:24;;;;;;;9.10;3.90;;;;;;;30.71;49.90;99575.02;109801;1244;22425;-42
2023/07/03 10:44:56;;;;;;;4.40;3.80;;;;;;;30.79;51.11;99573.05;110150;1239;22491;-51
2023/07/03 10:47:52;;;;;;;5.40;3.60;;;;;;;30.61;51.40;99580.85;110355;1240;24239;-46
2023/07/03 10:50:24;;;;;;;6.20;4.20;;;;;;;30.26;52.38;99566.80;110635;1239;22510;-41
2023/07/03 10:52:56;;;;;;;5.00;4.10;;;;;;;29.99;53.30;99566.43;112914;1240;22399;-50
2023/07/03 10:55:53;;;;;;;8.10;4.10;;;;;;;29.74;54.26;99565.02;111147;1242;22488;-41
